sensor_id;sensor_type;location;lat;lon;timestamp;P1;durP1;ratioP1;P2;durP2;ratioP2
19798;SDS011;10059;59.850;10.454;2022-07-21T00:01:25;20.33;;;12.10;;
19798;SDS011;10059;59.850;10.454;2022-07-21T00:03:52;21.73;;;12.17;;
19798;SDS011;10059;59.850;10.454;2022-07-21T00:06:19;21.80;;;12.70;;
19798;SDS011;10059;59.850;10.454;2022-07-21T00:08:46;22.23;;;12.50;;
19798;SDS011;10059;59.850;10.454;2022-07-21T00:11:13;20.03;;;12.70;;
19798;SDS011;10059;59.850;10.454;2022-07-21T00:13:40;17.77;;;11.73;;
19798;SDS011;10059;59.850;10.454;2022-07-21T00:16:08;22.20;;;11.90;;
19798;SDS011;10059;59.850;10.454;2022-07-21T00:18:35;20.33;;;12.20;;
19798;SDS011;10059;59.850;10.454;2022-07-21T00:21:02;20.67;;;11.83;;
19798;SDS011;10059;59.850;10.454;2022-07-21T00:23:29;17.63;;;12.00;;
19798;SDS011;10059;59.850;10.454;2022-07-21T00:25:56;18.07;;;11.27;;
19798;SDS011;10059;59.850;10.454;2022-07-21T00:28:23;17.83;;;11.50;;
19798;SDS011;10059;59.850;10.454;2022-07-21T00:30:50;16.67;;;12.33;;
19798;SDS011;10059;59.850;10.454;2022-07-21T00:33:18;18.07;;;12.13;;
19798;SDS011;10059;59.850;10.454;2022-07-21T00:35:45;18.90;;;12.00;;
19798;SDS011;10059;59.850;10.454;2022-07-21T00:38:12;19.70;;;11.80;;
19798;SDS011;10059;59.850;10.454;2022-07-21T00:40:39;20.07;;;12.17;;
19798;SDS011;10059;59.850;10.454;2022-07-21T00:43:06;22.97;;;12.17;;
19798;SDS011;10059;59.850;10.454;2022-07-21T00:45:32;19.13;;;12.23;;
19798;SDS011;10059;59.850;10.454;2022-07-21T00:47:59;20.27;;;12.07;;
19798;SDS011;10059;59.850;10.454;2022-07-21T00:50:28;17.77;;;11.77;;
19798;SDS011;10059;59.850;10.454;2022-07-21T00:52:56;17.77;;;11.77;;
19798;SDS011;10059;59.850;10.454;2022-07-21T00:55:22;21.30;;;12.37;;
19798;SDS011;10059;59.850;10.454;2022-07-21T00:57:50;20.03;;;12.10;;
19798;SDS011;10059;59.850;10.454;2022-07-21T01:00:18;21.13;;;12.50;;
19798;SDS011;10059;59.850;10.454;2022-07-21T01:02:47;18.67;;;12.43;;
19798;SDS011;10059;59.850;10.454;2022-07-21T01:05:14;18.47;;;11.67;;
19798;SDS011;10059;59.850;10.454;2022-07-21T01:07:44;22.40;;;12.87;;
19798;SDS011;10059;59.850;10.454;2022-07-21T01:10:13;21.63;;;12.97;;
19798;SDS011;10059;59.850;10.454;2022-07-21T01:12:41;20.97;;;12.60;;
19798;SDS011;10059;59.850;10.454;2022-07-21T01:15:09;20.60;;;12.90;;
19798;SDS011;10059;59.850;10.454;2022-07-21T01:17:37;24.73;;;12.27;;
19798;SDS011;10059;59.850;10.454;2022-07-21T01:20:05;20.97;;;12.33;;
19798;SDS011;10059;59.850;10.454;2022-07-21T01:22:35;17.27;;;11.43;;
19798;SDS011;10059;59.850;10.454;2022-07-21T01:25:05;17.93;;;12.07;;
19798;SDS011;10059;59.850;10.454;2022-07-21T01:27:32;20.17;;;11.77;;
19798;SDS011;10059;59.850;10.454;2022-07-21T01:29:59;20.57;;;12.77;;
19798;SDS011;10059;59.850;10.454;2022-07-21T01:32:26;19.30;;;13.03;;
19798;SDS011;10059;59.850;10.454;2022-07-21T01:34:53;22.63;;;13.23;;
19798;SDS011;10059;59.850;10.454;2022-07-21T01:37:21;23.17;;;13.00;;
19798;SDS011;10059;59.850;10.454;2022-07-21T01:39:50;22.80;;;13.03;;
19798;SDS011;10059;59.850;10.454;2022-07-21T01:42:34;24.33;;;13.20;;
19798;SDS011;10059;59.850;10.454;2022-07-21T01:45:02;21.00;;;12.60;;
19798;SDS011;10059;59.850;10.454;2022-07-21T01:47:31;20.73;;;13.90;;
19798;SDS011;10059;59.850;10.454;2022-07-21T01:49:58;23.57;;;12.90;;
19798;SDS011;10059;59.850;10.454;2022-07-21T01:52:25;21.90;;;13.33;;
19798;SDS011;10059;59.850;10.454;2022-07-21T01:54:53;22.23;;;13.87;;
19798;SDS011;10059;59.850;10.454;2022-07-21T01:57:20;20.87;;;12.83;;
19798;SDS011;10059;59.850;10.454;2022-07-21T01:59:47;22.27;;;13.60;;
19798;SDS011;10059;59.850;10.454;2022-07-21T02:02:14;20.23;;;13.47;;
19798;SDS011;10059;59.850;10.454;2022-07-21T02:04:45;20.57;;;13.87;;
19798;SDS011;10059;59.850;10.454;2022-07-21T02:07:12;25.77;;;13.47;;
19798;SDS011;10059;59.850;10.454;2022-07-21T02:09:39;19.30;;;13.67;;
19798;SDS011;10059;59.850;10.454;2022-07-21T02:12:08;23.23;;;13.90;;
19798;SDS011;10059;59.850;10.454;2022-07-21T02:14:35;22.67;;;13.87;;
19798;SDS011;10059;59.850;10.454;2022-07-21T02:17:02;20.90;;;13.53;;
19798;SDS011;10059;59.850;10.454;2022-07-21T02:19:29;27.43;;;14.83;;
19798;SDS011;10059;59.850;10.454;2022-07-21T02:21:56;23.07;;;14.50;;
19798;SDS011;10059;59.850;10.454;2022-07-21T02:24:23;26.10;;;14.33;;
19798;SDS011;10059;59.850;10.454;2022-07-21T02:26:50;24.33;;;14.13;;
19798;SDS011;10059;59.850;10.454;2022-07-21T02:29:18;22.03;;;13.93;;
19798;SDS011;10059;59.850;10.454;2022-07-21T02:31:45;22.60;;;13.93;;
19798;SDS011;10059;59.850;10.454;2022-07-21T02:34:12;23.20;;;14.17;;
19798;SDS011;10059;59.850;10.454;2022-07-21T02:36:39;20.67;;;13.57;;
19798;SDS011;10059;59.850;10.454;2022-07-21T02:39:06;24.07;;;13.77;;
19798;SDS011;10059;59.850;10.454;2022-07-21T02:41:33;23.27;;;13.63;;
19798;SDS011;10059;59.850;10.454;2022-07-21T02:43:59;23.80;;;13.43;;
19798;SDS011;10059;59.850;10.454;2022-07-21T02:46:28;22.20;;;13.77;;
19798;SDS011;10059;59.850;10.454;2022-07-21T02:48:55;22.63;;;13.87;;
19798;SDS011;10059;59.850;10.454;2022-07-21T02:51:21;22.63;;;14.83;;
19798;SDS011;10059;59.850;10.454;2022-07-21T02:53:48;19.47;;;13.43;;
19798;SDS011;10059;59.850;10.454;2022-07-21T02:56:15;20.30;;;13.77;;
19798;SDS011;10059;59.850;10.454;2022-07-21T02:58:43;23.23;;;14.10;;
19798;SDS011;10059;59.850;10.454;2022-07-21T03:01:10;23.17;;;14.70;;
19798;SDS011;10059;59.850;10.454;2022-07-21T03:03:38;20.43;;;13.70;;
19798;SDS011;10059;59.850;10.454;2022-07-21T03:06:05;23.03;;;13.77;;
19798;SDS011;10059;59.850;10.454;2022-07-21T03:08:32;20.93;;;14.43;;
19798;SDS011;10059;59.850;10.454;2022-07-21T03:10:59;21.63;;;14.73;;
19798;SDS011;10059;59.850;10.454;2022-07-21T03:13:28;22.77;;;14.70;;
19798;SDS011;10059;59.850;10.454;2022-07-21T03:15:55;22.80;;;14.17;;
19798;SDS011;10059;59.850;10.454;2022-07-21T03:18:22;20.43;;;14.07;;
19798;SDS011;10059;59.850;10.454;2022-07-21T03:20:50;20.70;;;14.67;;
19798;SDS011;10059;59.850;10.454;2022-07-21T03:23:17;23.63;;;14.30;;
19798;SDS011;10059;59.850;10.454;2022-07-21T03:25:45;24.50;;;15.10;;
19798;SDS011;10059;59.850;10.454;2022-07-21T03:28:12;24.97;;;14.87;;
19798;SDS011;10059;59.850;10.454;2022-07-21T03:30:39;23.03;;;15.30;;
19798;SDS011;10059;59.850;10.454;2022-07-21T03:33:06;25.27;;;14.97;;
19798;SDS011;10059;59.850;10.454;2022-07-21T03:35:33;23.57;;;15.80;;
19798;SDS011;10059;59.850;10.454;2022-07-21T03:38:03;24.93;;;15.97;;
19798;SDS011;10059;59.850;10.454;2022-07-21T03:40:32;23.63;;;15.90;;
19798;SDS011;10059;59.850;10.454;2022-07-21T03:43:02;21.33;;;15.30;;
19798;SDS011;10059;59.850;10.454;2022-07-21T03:45:31;23.03;;;15.40;;
19798;SDS011;10059;59.850;10.454;2022-07-21T03:48:00;23.53;;;15.70;;
19798;SDS011;10059;59.850;10.454;2022-07-21T03:50:28;22.97;;;15.50;;
19798;SDS011;10059;59.850;10.454;2022-07-21T03:52:56;24.13;;;15.73;;
19798;SDS011;10059;59.850;10.454;2022-07-21T03:55:25;22.97;;;15.97;;
19798;SDS011;10059;59.850;10.454;2022-07-21T03:57:53;26.60;;;15.93;;
19798;SDS011;10059;59.850;10.454;2022-07-21T04:00:22;22.77;;;15.50;;
19798;SDS011;10059;59.850;10.454;2022-07-21T04:02:50;25.57;;;15.83;;
19798;SDS011;10059;59.850;10.454;2022-07-21T04:05:18;22.10;;;15.87;;
19798;SDS011;10059;59.850;10.454;2022-07-21T04:07:47;24.87;;;16.33;;
19798;SDS011;10059;59.850;10.454;2022-07-21T04:10:16;27.17;;;16.83;;
19798;SDS011;10059;59.850;10.454;2022-07-21T04:12:46;23.87;;;16.27;;
19798;SDS011;10059;59.850;10.454;2022-07-21T04:15:13;22.53;;;15.83;;
19798;SDS011;10059;59.850;10.454;2022-07-21T04:17:40;23.60;;;15.50;;
19798;SDS011;10059;59.850;10.454;2022-07-21T04:20:08;19.87;;;15.53;;
19798;SDS011;10059;59.850;10.454;2022-07-21T04:22:37;21.00;;;15.53;;
19798;SDS011;10059;59.850;10.454;2022-07-21T04:25:05;27.00;;;15.23;;
19798;SDS011;10059;59.850;10.454;2022-07-21T04:27:33;23.47;;;15.10;;
19798;SDS011;10059;59.850;10.454;2022-07-21T04:30:03;25.20;;;14.80;;
19798;SDS011;10059;59.850;10.454;2022-07-21T04:32:31;19.67;;;14.87;;
19798;SDS011;10059;59.850;10.454;2022-07-21T04:34:58;23.73;;;14.57;;
19798;SDS011;10059;59.850;10.454;2022-07-21T04:37:25;22.57;;;14.10;;
19798;SDS011;10059;59.850;10.454;2022-07-21T04:39:53;19.87;;;13.60;;
19798;SDS011;10059;59.850;10.454;2022-07-21T04:42:19;18.67;;;13.63;;
19798;SDS011;10059;59.850;10.454;2022-07-21T04:44:46;22.37;;;14.40;;
19798;SDS011;10059;59.850;10.454;2022-07-21T04:47:15;19.03;;;14.33;;
19798;SDS011;10059;59.850;10.454;2022-07-21T04:49:42;21.27;;;14.07;;
19798;SDS011;10059;59.850;10.454;2022-07-21T04:52:09;19.17;;;13.77;;
19798;SDS011;10059;59.850;10.454;2022-07-21T04:54:35;19.33;;;13.50;;
19798;SDS011;10059;59.850;10.454;2022-07-21T04:57:03;18.23;;;13.53;;
19798;SDS011;10059;59.850;10.454;2022-07-21T04:59:31;20.73;;;13.20;;
19798;SDS011;10059;59.850;10.454;2022-07-21T05:01:58;20.80;;;13.17;;
19798;SDS011;10059;59.850;10.454;2022-07-21T05:04:27;18.10;;;12.90;;
19798;SDS011;10059;59.850;10.454;2022-07-21T05:06:54;21.90;;;13.80;;
19798;SDS011;10059;59.850;10.454;2022-07-21T05:09:22;20.63;;;13.60;;
19798;SDS011;10059;59.850;10.454;2022-07-21T05:11:49;23.20;;;13.30;;
19798;SDS011;10059;59.850;10.454;2022-07-21T05:14:16;25.57;;;13.20;;
19798;SDS011;10059;59.850;10.454;2022-07-21T05:16:43;22.70;;;13.70;;
19798;SDS011;10059;59.850;10.454;2022-07-21T05:19:10;23.63;;;14.37;;
19798;SDS011;10059;59.850;10.454;2022-07-21T05:21:39;21.67;;;13.33;;
19798;SDS011;10059;59.850;10.454;2022-07-21T05:24:06;21.37;;;14.20;;
19798;SDS011;10059;59.850;10.454;2022-07-21T05:26:34;20.87;;;13.63;;
19798;SDS011;10059;59.850;10.454;2022-07-21T05:29:01;24.87;;;13.90;;
19798;SDS011;10059;59.850;10.454;2022-07-21T05:31:27;21.27;;;13.27;;
19798;SDS011;10059;59.850;10.454;2022-07-21T05:33:54;20.53;;;12.80;;
19798;SDS011;10059;59.850;10.454;2022-07-21T05:36:21;22.37;;;12.23;;
19798;SDS011;10059;59.850;10.454;2022-07-21T05:38:49;19.50;;;12.43;;
19798;SDS011;10059;59.850;10.454;2022-07-21T05:41:16;19.60;;;12.30;;
19798;SDS011;10059;59.850;10.454;2022-07-21T05:43:43;18.87;;;12.17;;
19798;SDS011;10059;59.850;10.454;2022-07-21T05:46:10;19.70;;;12.47;;
19798;SDS011;10059;59.850;10.454;2022-07-21T05:48:37;20.37;;;13.80;;
19798;SDS011;10059;59.850;10.454;2022-07-21T05:51:04;25.27;;;13.67;;
19798;SDS011;10059;59.850;10.454;2022-07-21T05:53:31;21.93;;;13.40;;
19798;SDS011;10059;59.850;10.454;2022-07-21T05:55:59;23.37;;;13.83;;
19798;SDS011;10059;59.850;10.454;2022-07-21T05:58:26;25.50;;;14.03;;
19798;SDS011;10059;59.850;10.454;2022-07-21T06:00:53;23.53;;;13.10;;
19798;SDS011;10059;59.850;10.454;2022-07-21T06:03:38;18.23;;;12.07;;
19798;SDS011;10059;59.850;10.454;2022-07-21T06:06:05;19.07;;;12.43;;
19798;SDS011;10059;59.850;10.454;2022-07-21T06:08:32;20.20;;;12.57;;
19798;SDS011;10059;59.850;10.454;2022-07-21T06:11:01;21.10;;;12.33;;
19798;SDS011;10059;59.850;10.454;2022-07-21T06:13:28;19.63;;;11.67;;
19798;SDS011;10059;59.850;10.454;2022-07-21T06:15:55;22.70;;;12.17;;
19798;SDS011;10059;59.850;10.454;2022-07-21T06:18:22;19.20;;;12.17;;
19798;SDS011;10059;59.850;10.454;2022-07-21T06:20:48;20.67;;;12.60;;
19798;SDS011;10059;59.850;10.454;2022-07-21T06:23:15;21.23;;;12.43;;
19798;SDS011;10059;59.850;10.454;2022-07-21T06:25:42;22.00;;;12.87;;
19798;SDS011;10059;59.850;10.454;2022-07-21T06:28:11;21.87;;;13.07;;
19798;SDS011;10059;59.850;10.454;2022-07-21T06:30:38;24.83;;;13.67;;
19798;SDS011;10059;59.850;10.454;2022-07-21T06:33:05;26.87;;;14.80;;
19798;SDS011;10059;59.850;10.454;2022-07-21T06:35:32;25.27;;;14.40;;
19798;SDS011;10059;59.850;10.454;2022-07-21T06:37:59;29.87;;;14.27;;
19798;SDS011;10059;59.850;10.454;2022-07-21T06:40:26;26.60;;;14.83;;
19798;SDS011;10059;59.850;10.454;2022-07-21T06:42:53;28.70;;;16.90;;
19798;SDS011;10059;59.850;10.454;2022-07-21T06:45:22;25.17;;;15.77;;
19798;SDS011;10059;59.850;10.454;2022-07-21T06:47:49;28.43;;;16.83;;
19798;SDS011;10059;59.850;10.454;2022-07-21T06:50:24;28.20;;;17.27;;
19798;SDS011;10059;59.850;10.454;2022-07-21T06:52:51;29.63;;;17.83;;
19798;SDS011;10059;59.850;10.454;2022-07-21T06:55:18;35.83;;;19.27;;
19798;SDS011;10059;59.850;10.454;2022-07-21T06:57:45;31.83;;;19.97;;
19798;SDS011;10059;59.850;10.454;2022-07-21T07:00:12;33.53;;;20.97;;
19798;SDS011;10059;59.850;10.454;2022-07-21T07:02:41;35.23;;;21.77;;
19798;SDS011;10059;59.850;10.454;2022-07-21T07:05:08;42.87;;;22.83;;
19798;SDS011;10059;59.850;10.454;2022-07-21T07:07:35;36.73;;;22.37;;
19798;SDS011;10059;59.850;10.454;2022-07-21T07:10:02;36.37;;;20.43;;
19798;SDS011;10059;59.850;10.454;2022-07-21T07:12:30;35.67;;;21.67;;
19798;SDS011;10059;59.850;10.454;2022-07-21T07:14:57;36.23;;;22.33;;
19798;SDS011;10059;59.850;10.454;2022-07-21T07:17:24;33.33;;;21.10;;
19798;SDS011;10059;59.850;10.454;2022-07-21T07:19:52;44.83;;;21.00;;
19798;SDS011;10059;59.850;10.454;2022-07-21T07:22:19;35.47;;;20.37;;
19798;SDS011;10059;59.850;10.454;2022-07-21T07:24:46;35.17;;;20.90;;
19798;SDS011;10059;59.850;10.454;2022-07-21T07:27:13;40.10;;;20.53;;
19798;SDS011;10059;59.850;10.454;2022-07-21T07:29:39;36.03;;;19.90;;
19798;SDS011;10059;59.850;10.454;2022-07-21T07:32:06;34.43;;;20.73;;
19798;SDS011;10059;59.850;10.454;2022-07-21T07:34:33;33.90;;;20.57;;
19798;SDS011;10059;59.850;10.454;2022-07-21T07:37:01;32.43;;;20.57;;
19798;SDS011;10059;59.850;10.454;2022-07-21T07:39:28;37.77;;;21.77;;
19798;SDS011;10059;59.850;10.454;2022-07-21T07:41:55;30.67;;;20.43;;
19798;SDS011;10059;59.850;10.454;2022-07-21T07:44:22;33.87;;;20.93;;
19798;SDS011;10059;59.850;10.454;2022-07-21T07:46:49;33.23;;;21.43;;
19798;SDS011;10059;59.850;10.454;2022-07-21T07:49:16;32.40;;;19.97;;
19798;SDS011;10059;59.850;10.454;2022-07-21T07:51:43;34.60;;;19.40;;
19798;SDS011;10059;59.850;10.454;2022-07-21T07:54:11;33.17;;;19.60;;
19798;SDS011;10059;59.850;10.454;2022-07-21T07:56:38;34.67;;;19.40;;
19798;SDS011;10059;59.850;10.454;2022-07-21T07:59:05;32.67;;;18.73;;
19798;SDS011;10059;59.850;10.454;2022-07-21T08:01:33;33.30;;;17.97;;
19798;SDS011;10059;59.850;10.454;2022-07-21T08:04:00;27.47;;;18.27;;
19798;SDS011;10059;59.850;10.454;2022-07-21T08:06:26;28.43;;;17.47;;
19798;SDS011;10059;59.850;10.454;2022-07-21T08:08:53;28.40;;;16.53;;
19798;SDS011;10059;59.850;10.454;2022-07-21T08:11:22;26.30;;;17.87;;
19798;SDS011;10059;59.850;10.454;2022-07-21T08:13:49;28.03;;;17.13;;
19798;SDS011;10059;59.850;10.454;2022-07-21T08:16:16;27.63;;;17.87;;
19798;SDS011;10059;59.850;10.454;2022-07-21T08:18:43;29.00;;;17.03;;
19798;SDS011;10059;59.850;10.454;2022-07-21T08:21:11;30.87;;;18.37;;
19798;SDS011;10059;59.850;10.454;2022-07-21T08:23:38;25.43;;;16.57;;
19798;SDS011;10059;59.850;10.454;2022-07-21T08:26:05;25.77;;;16.27;;
19798;SDS011;10059;59.850;10.454;2022-07-21T08:28:33;24.53;;;16.40;;
19798;SDS011;10059;59.850;10.454;2022-07-21T08:31:00;25.37;;;15.77;;
19798;SDS011;10059;59.850;10.454;2022-07-21T08:33:27;25.43;;;14.80;;
19798;SDS011;10059;59.850;10.454;2022-07-21T08:35:54;23.50;;;15.03;;
19798;SDS011;10059;59.850;10.454;2022-07-21T08:38:20;21.97;;;14.70;;
19798;SDS011;10059;59.850;10.454;2022-07-21T08:40:48;21.60;;;14.83;;
19798;SDS011;10059;59.850;10.454;2022-07-21T08:43:15;23.53;;;13.67;;
19798;SDS011;10059;59.850;10.454;2022-07-21T08:45:43;19.67;;;12.60;;
19798;SDS011;10059;59.850;10.454;2022-07-21T08:48:10;22.40;;;13.80;;
19798;SDS011;10059;59.850;10.454;2022-07-21T08:50:39;23.13;;;13.50;;
19798;SDS011;10059;59.850;10.454;2022-07-21T08:53:06;23.03;;;13.47;;
19798;SDS011;10059;59.850;10.454;2022-07-21T08:55:34;22.63;;;14.33;;
19798;SDS011;10059;59.850;10.454;2022-07-21T08:58:03;21.63;;;13.23;;
19798;SDS011;10059;59.850;10.454;2022-07-21T09:00:33;20.47;;;14.60;;
19798;SDS011;10059;59.850;10.454;2022-07-21T09:03:09;23.33;;;14.73;;
19798;SDS011;10059;59.850;10.454;2022-07-21T09:05:37;23.47;;;13.57;;
19798;SDS011;10059;59.850;10.454;2022-07-21T09:08:04;24.20;;;13.93;;
19798;SDS011;10059;59.850;10.454;2022-07-21T09:10:31;22.57;;;14.40;;
19798;SDS011;10059;59.850;10.454;2022-07-21T09:13:00;22.87;;;14.00;;
19798;SDS011;10059;59.850;10.454;2022-07-21T09:15:29;24.13;;;14.83;;
19798;SDS011;10059;59.850;10.454;2022-07-21T09:18:09;20.53;;;14.10;;
19798;SDS011;10059;59.850;10.454;2022-07-21T09:20:38;23.93;;;14.70;;
19798;SDS011;10059;59.850;10.454;2022-07-21T09:23:13;20.73;;;13.80;;
19798;SDS011;10059;59.850;10.454;2022-07-21T09:25:41;22.37;;;13.80;;
19798;SDS011;10059;59.850;10.454;2022-07-21T09:28:11;21.67;;;14.30;;
19798;SDS011;10059;59.850;10.454;2022-07-21T09:30:50;24.73;;;14.37;;
19798;SDS011;10059;59.850;10.454;2022-07-21T09:33:21;20.77;;;14.17;;
19798;SDS011;10059;59.850;10.454;2022-07-21T09:35:53;21.10;;;14.40;;
19798;SDS011;10059;59.850;10.454;2022-07-21T09:38:21;24.50;;;14.23;;
19798;SDS011;10059;59.850;10.454;2022-07-21T09:40:48;22.13;;;14.70;;
19798;SDS011;10059;59.850;10.454;2022-07-21T09:43:27;23.23;;;14.80;;
19798;SDS011;10059;59.850;10.454;2022-07-21T09:45:55;19.43;;;14.03;;
19798;SDS011;10059;59.850;10.454;2022-07-21T09:48:36;22.27;;;13.83;;
19798;SDS011;10059;59.850;10.454;2022-07-21T09:51:23;24.80;;;15.50;;
19798;SDS011;10059;59.850;10.454;2022-07-21T09:53:53;21.93;;;13.60;;
19798;SDS011;10059;59.850;10.454;2022-07-21T09:56:25;23.73;;;13.50;;
19798;SDS011;10059;59.850;10.454;2022-07-21T09:58:55;22.20;;;13.77;;
19798;SDS011;10059;59.850;10.454;2022-07-21T10:01:23;22.23;;;13.67;;
19798;SDS011;10059;59.850;10.454;2022-07-21T10:03:52;23.10;;;14.83;;
19798;SDS011;10059;59.850;10.454;2022-07-21T10:06:22;20.30;;;14.00;;
19798;SDS011;10059;59.850;10.454;2022-07-21T10:08:50;21.57;;;14.03;;
19798;SDS011;10059;59.850;10.454;2022-07-21T10:11:18;21.47;;;14.17;;
19798;SDS011;10059;59.850;10.454;2022-07-21T10:13:45;20.43;;;13.97;;
19798;SDS011;10059;59.850;10.454;2022-07-21T10:16:12;22.80;;;14.73;;
19798;SDS011;10059;59.850;10.454;2022-07-21T10:18:43;22.57;;;14.10;;
19798;SDS011;10059;59.850;10.454;2022-07-21T10:21:26;19.63;;;13.30;;
19798;SDS011;10059;59.850;10.454;2022-07-21T10:24:04;21.90;;;14.90;;
19798;SDS011;10059;59.850;10.454;2022-07-21T10:26:31;22.43;;;14.20;;
19798;SDS011;10059;59.850;10.454;2022-07-21T10:28:58;22.37;;;15.23;;
19798;SDS011;10059;59.850;10.454;2022-07-21T10:31:25;19.50;;;13.90;;
19798;SDS011;10059;59.850;10.454;2022-07-21T10:33:57;20.17;;;14.20;;
19798;SDS011;10059;59.850;10.454;2022-07-21T10:36:45;20.40;;;13.93;;
19798;SDS011;10059;59.850;10.454;2022-07-21T10:39:19;20.03;;;13.80;;
19798;SDS011;10059;59.850;10.454;2022-07-21T10:41:49;22.53;;;13.77;;
19798;SDS011;10059;59.850;10.454;2022-07-21T10:47:13;23.40;;;14.03;;
19798;SDS011;10059;59.850;10.454;2022-07-21T10:49:48;18.17;;;12.37;;
19798;SDS011;10059;59.850;10.454;2022-07-21T10:55:36;18.80;;;13.00;;
19798;SDS011;10059;59.850;10.454;2022-07-21T10:58:10;18.63;;;12.93;;
19798;SDS011;10059;59.850;10.454;2022-07-21T11:00:41;21.43;;;13.00;;
19798;SDS011;10059;59.850;10.454;2022-07-21T11:03:15;18.37;;;12.63;;
19798;SDS011;10059;59.850;10.454;2022-07-21T11:08:39;17.40;;;12.13;;
19798;SDS011;10059;59.850;10.454;2022-07-21T11:11:09;19.30;;;12.03;;
19798;SDS011;10059;59.850;10.454;2022-07-21T11:19:37;18.00;;;13.00;;
19798;SDS011;10059;59.850;10.454;2022-07-21T11:22:09;16.80;;;12.03;;
19798;SDS011;10059;59.850;10.454;2022-07-21T11:24:37;16.50;;;11.80;;
19798;SDS011;10059;59.850;10.454;2022-07-21T11:27:08;18.00;;;12.20;;
19798;SDS011;10059;59.850;10.454;2022-07-21T11:29:37;19.23;;;12.23;;
19798;SDS011;10059;59.850;10.454;2022-07-21T11:32:06;16.53;;;12.17;;
19798;SDS011;10059;59.850;10.454;2022-07-21T11:34:38;20.27;;;12.30;;
19798;SDS011;10059;59.850;10.454;2022-07-21T11:37:06;21.20;;;12.53;;
19798;SDS011;10059;59.850;10.454;2022-07-21T11:39:34;16.57;;;12.20;;
19798;SDS011;10059;59.850;10.454;2022-07-21T11:42:02;16.60;;;12.70;;
19798;SDS011;10059;59.850;10.454;2022-07-21T11:44:31;18.77;;;12.27;;
19798;SDS011;10059;59.850;10.454;2022-07-21T11:46:59;16.80;;;11.27;;
19798;SDS011;10059;59.850;10.454;2022-07-21T11:49:27;15.37;;;11.03;;
19798;SDS011;10059;59.850;10.454;2022-07-21T11:51:56;17.37;;;11.90;;
19798;SDS011;10059;59.850;10.454;2022-07-21T11:54:26;18.40;;;12.03;;
19798;SDS011;10059;59.850;10.454;2022-07-21T11:56:55;14.60;;;11.87;;
19798;SDS011;10059;59.850;10.454;2022-07-21T11:59:23;15.90;;;11.40;;
19798;SDS011;10059;59.850;10.454;2022-07-21T12:01:53;16.13;;;12.03;;
19798;SDS011;10059;59.850;10.454;2022-07-21T12:04:35;18.40;;;11.30;;
19798;SDS011;10059;59.850;10.454;2022-07-21T12:07:05;15.50;;;11.60;;
19798;SDS011;10059;59.850;10.454;2022-07-21T12:09:33;17.53;;;11.37;;
19798;SDS011;10059;59.850;10.454;2022-07-21T12:12:00;17.50;;;11.80;;
19798;SDS011;10059;59.850;10.454;2022-07-21T12:14:41;18.20;;;11.27;;
19798;SDS011;10059;59.850;10.454;2022-07-21T12:17:10;18.60;;;11.97;;
19798;SDS011;10059;59.850;10.454;2022-07-21T12:19:37;17.30;;;11.50;;
19798;SDS011;10059;59.850;10.454;2022-07-21T12:22:04;17.03;;;11.60;;
19798;SDS011;10059;59.850;10.454;2022-07-21T12:27:17;16.97;;;11.53;;
19798;SDS011;10059;59.850;10.454;2022-07-21T12:29:44;17.90;;;11.30;;
19798;SDS011;10059;59.850;10.454;2022-07-21T12:32:13;15.60;;;10.63;;
19798;SDS011;10059;59.850;10.454;2022-07-21T12:35:00;14.70;;;11.17;;
19798;SDS011;10059;59.850;10.454;2022-07-21T12:40:19;16.07;;;11.43;;
19798;SDS011;10059;59.850;10.454;2022-07-21T12:42:46;18.53;;;11.43;;
19798;SDS011;10059;59.850;10.454;2022-07-21T12:45:14;20.20;;;12.13;;
19798;SDS011;10059;59.850;10.454;2022-07-21T12:47:44;17.20;;;12.07;;
19798;SDS011;10059;59.850;10.454;2022-07-21T12:50:31;17.30;;;11.90;;
19798;SDS011;10059;59.850;10.454;2022-07-21T12:52:58;18.37;;;12.10;;
19798;SDS011;10059;59.850;10.454;2022-07-21T12:55:25;17.27;;;12.07;;
19798;SDS011;10059;59.850;10.454;2022-07-21T12:57:53;16.67;;;12.17;;
19798;SDS011;10059;59.850;10.454;2022-07-21T13:00:20;18.80;;;12.47;;
19798;SDS011;10059;59.850;10.454;2022-07-21T13:02:48;14.20;;;11.77;;
19798;SDS011;10059;59.850;10.454;2022-07-21T13:05:16;16.70;;;12.03;;
19798;SDS011;10059;59.850;10.454;2022-07-21T13:07:43;17.43;;;12.07;;
19798;SDS011;10059;59.850;10.454;2022-07-21T13:10:10;15.20;;;11.93;;
19798;SDS011;10059;59.850;10.454;2022-07-21T13:12:37;16.23;;;11.57;;
19798;SDS011;10059;59.850;10.454;2022-07-21T13:15:05;19.73;;;12.13;;
19798;SDS011;10059;59.850;10.454;2022-07-21T13:17:32;14.97;;;11.70;;
19798;SDS011;10059;59.850;10.454;2022-07-21T13:20:01;17.50;;;11.73;;
19798;SDS011;10059;59.850;10.454;2022-07-21T13:22:29;17.37;;;12.40;;
19798;SDS011;10059;59.850;10.454;2022-07-21T13:24:56;18.20;;;12.10;;
19798;SDS011;10059;59.850;10.454;2022-07-21T13:27:22;16.47;;;12.10;;
19798;SDS011;10059;59.850;10.454;2022-07-21T13:29:49;18.13;;;12.17;;
19798;SDS011;10059;59.850;10.454;2022-07-21T13:32:16;15.20;;;11.27;;
19798;SDS011;10059;59.850;10.454;2022-07-21T13:34:43;14.87;;;11.40;;
19798;SDS011;10059;59.850;10.454;2022-07-21T13:37:11;14.73;;;11.10;;
19798;SDS011;10059;59.850;10.454;2022-07-21T13:39:38;17.10;;;11.23;;
19798;SDS011;10059;59.850;10.454;2022-07-21T13:42:05;17.53;;;11.10;;
19798;SDS011;10059;59.850;10.454;2022-07-21T13:44:33;22.40;;;11.37;;
19798;SDS011;10059;59.850;10.454;2022-07-21T13:47:00;18.20;;;12.00;;
19798;SDS011;10059;59.850;10.454;2022-07-21T13:49:28;20.90;;;12.17;;
19798;SDS011;10059;59.850;10.454;2022-07-21T13:51:55;16.23;;;12.23;;
19798;SDS011;10059;59.850;10.454;2022-07-21T13:54:23;16.40;;;12.50;;
19798;SDS011;10059;59.850;10.454;2022-07-21T13:56:50;15.17;;;11.97;;
19798;SDS011;10059;59.850;10.454;2022-07-21T13:59:17;13.93;;;11.50;;
19798;SDS011;10059;59.850;10.454;2022-07-21T14:01:44;18.50;;;11.53;;
19798;SDS011;10059;59.850;10.454;2022-07-21T14:04:11;13.97;;;11.50;;
19798;SDS011;10059;59.850;10.454;2022-07-21T14:06:38;16.00;;;11.50;;
19798;SDS011;10059;59.850;10.454;2022-07-21T14:09:05;16.80;;;12.30;;
19798;SDS011;10059;59.850;10.454;2022-07-21T14:11:33;16.47;;;12.73;;
19798;SDS011;10059;59.850;10.454;2022-07-21T14:14:01;17.23;;;12.57;;
19798;SDS011;10059;59.850;10.454;2022-07-21T14:16:28;15.83;;;11.77;;
19798;SDS011;10059;59.850;10.454;2022-07-21T14:18:54;19.07;;;12.00;;
19798;SDS011;10059;59.850;10.454;2022-07-21T14:21:21;16.30;;;12.43;;
19798;SDS011;10059;59.850;10.454;2022-07-21T14:23:48;19.10;;;12.03;;
19798;SDS011;10059;59.850;10.454;2022-07-21T14:26:37;18.13;;;12.30;;
19798;SDS011;10059;59.850;10.454;2022-07-21T14:29:04;15.67;;;12.03;;
19798;SDS011;10059;59.850;10.454;2022-07-21T14:31:31;19.13;;;12.40;;
19798;SDS011;10059;59.850;10.454;2022-07-21T14:33:58;17.00;;;12.10;;
19798;SDS011;10059;59.850;10.454;2022-07-21T14:36:25;15.83;;;11.37;;